sensor_id;sensor_type;location;lat;lon;timestamp;P1;durP1;ratioP1;P2;durP2;ratioP2
22780;SDS011;11557;50.884;4.322;2024-01-10T00:01:59;10.30;;;5.90;;
22780;SDS011;11557;50.884;4.322;2024-01-10T00:04:25;14.55;;;6.50;;
22780;SDS011;11557;50.884;4.322;2024-01-10T00:06:51;13.25;;;6.25;;
22780;SDS011;11557;50.884;4.322;2024-01-10T00:09:17;12.18;;;6.72;;
22780;SDS011;11557;50.884;4.322;2024-01-10T00:11:42;12.40;;;6.03;;
22780;SDS011;11557;50.884;4.322;2024-01-10T00:14:08;12.52;;;6.65;;
22780;SDS011;11557;50.884;4.322;2024-01-10T00:16:34;11.55;;;5.57;;
22780;SDS011;11557;50.884;4.322;2024-01-10T00:19:00;14.25;;;6.60;;
22780;SDS011;11557;50.884;4.322;2024-01-10T00:21:26;13.00;;;6.65;;
22780;SDS011;11557;50.884;4.322;2024-01-10T00:23:52;11.00;;;6.45;;
22780;SDS011;11557;50.884;4.322;2024-01-10T00:26:17;14.55;;;6.90;;
22780;SDS011;11557;50.884;4.322;2024-01-10T00:28:43;11.30;;;6.53;;
22780;SDS011;11557;50.884;4.322;2024-01-10T00:31:11;11.90;;;6.43;;
22780;SDS011;11557;50.884;4.322;2024-01-10T00:33:37;14.45;;;6.57;;
22780;SDS011;11557;50.884;4.322;2024-01-10T00:36:03;12.00;;;6.45;;
22780;SDS011;11557;50.884;4.322;2024-01-10T00:38:30;11.52;;;6.43;;
22780;SDS011;11557;50.884;4.322;2024-01-10T00:40:55;11.20;;;6.13;;
22780;SDS011;11557;50.884;4.322;2024-01-10T00:43:21;13.15;;;6.63;;
22780;SDS011;11557;50.884;4.322;2024-01-10T00:45:47;14.38;;;6.57;;
22780;SDS011;11557;50.884;4.322;2024-01-10T00:48:13;16.42;;;6.70;;
22780;SDS011;11557;50.884;4.322;2024-01-10T00:50:39;12.85;;;7.22;;
22780;SDS011;11557;50.884;4.322;2024-01-10T00:53:05;12.15;;;6.95;;
22780;SDS011;11557;50.884;4.322;2024-01-10T00:55:30;12.85;;;6.20;;
22780;SDS011;11557;50.884;4.322;2024-01-10T00:57:56;12.27;;;6.63;;
22780;SDS011;11557;50.884;4.322;2024-01-10T01:00:22;12.05;;;6.60;;
22780;SDS011;11557;50.884;4.322;2024-01-10T01:02:48;13.50;;;6.95;;
22780;SDS011;11557;50.884;4.322;2024-01-10T01:05:13;14.63;;;7.07;;
22780;SDS011;11557;50.884;4.322;2024-01-10T01:07:39;12.98;;;7.10;;
22780;SDS011;11557;50.884;4.322;2024-01-10T01:10:05;13.88;;;6.63;;
22780;SDS011;11557;50.884;4.322;2024-01-10T01:12:33;10.30;;;6.45;;
22780;SDS011;11557;50.884;4.322;2024-01-10T01:14:59;12.10;;;6.35;;
22780;SDS011;11557;50.884;4.322;2024-01-10T01:17:25;12.52;;;6.90;;
22780;SDS011;11557;50.884;4.322;2024-01-10T01:19:51;14.23;;;6.85;;
22780;SDS011;11557;50.884;4.322;2024-01-10T01:22:17;14.90;;;7.00;;
22780;SDS011;11557;50.884;4.322;2024-01-10T01:24:42;13.85;;;6.93;;
22780;SDS011;11557;50.884;4.322;2024-01-10T01:27:08;12.50;;;6.70;;
22780;SDS011;11557;50.884;4.322;2024-01-10T01:29:34;14.13;;;6.75;;
22780;SDS011;11557;50.884;4.322;2024-01-10T01:32:03;11.63;;;6.72;;
22780;SDS011;11557;50.884;4.322;2024-01-10T01:34:29;11.07;;;6.43;;
22780;SDS011;11557;50.884;4.322;2024-01-10T01:36:55;13.23;;;6.40;;
22780;SDS011;11557;50.884;4.322;2024-01-10T01:39:21;11.63;;;6.80;;
22780;SDS011;11557;50.884;4.322;2024-01-10T01:41:47;15.00;;;6.88;;
22780;SDS011;11557;50.884;4.322;2024-01-10T01:44:13;11.88;;;6.80;;
22780;SDS011;11557;50.884;4.322;2024-01-10T01:46:39;13.25;;;6.97;;
22780;SDS011;11557;50.884;4.322;2024-01-10T01:49:06;14.98;;;7.25;;
22780;SDS011;11557;50.884;4.322;2024-01-10T01:51:32;13.55;;;6.72;;
22780;SDS011;11557;50.884;4.322;2024-01-10T01:53:59;12.45;;;7.05;;
22780;SDS011;11557;50.884;4.322;2024-01-10T01:56:25;13.35;;;7.07;;
22780;SDS011;11557;50.884;4.322;2024-01-10T01:58:51;14.25;;;7.30;;
22780;SDS011;11557;50.884;4.322;2024-01-10T02:01:19;12.88;;;7.00;;
22780;SDS011;11557;50.884;4.322;2024-01-10T02:03:47;14.25;;;6.70;;
22780;SDS011;11557;50.884;4.322;2024-01-10T02:06:13;13.57;;;7.13;;
22780;SDS011;11557;50.884;4.322;2024-01-10T02:08:39;14.65;;;7.18;;
22780;SDS011;11557;50.884;4.322;2024-01-10T02:11:04;15.52;;;6.68;;
22780;SDS011;11557;50.884;4.322;2024-01-10T02:13:33;11.65;;;6.80;;
22780;SDS011;11557;50.884;4.322;2024-01-10T02:16:00;11.30;;;6.30;;
22780;SDS011;11557;50.884;4.322;2024-01-10T02:18:26;12.05;;;6.43;;
22780;SDS011;11557;50.884;4.322;2024-01-10T02:20:52;15.02;;;7.05;;
22780;SDS011;11557;50.884;4.322;2024-01-10T02:23:17;11.77;;;6.32;;
22780;SDS011;11557;50.884;4.322;2024-01-10T02:25:43;12.57;;;7.00;;
22780;SDS011;11557;50.884;4.322;2024-01-10T02:28:09;17.65;;;7.95;;
22780;SDS011;11557;50.884;4.322;2024-01-10T02:30:36;15.77;;;7.65;;
22780;SDS011;11557;50.884;4.322;2024-01-10T02:33:02;13.13;;;7.20;;
22780;SDS011;11557;50.884;4.322;2024-01-10T02:35:28;11.20;;;6.75;;
22780;SDS011;11557;50.884;4.322;2024-01-10T02:37:57;13.60;;;7.28;;
22780;SDS011;11557;50.884;4.322;2024-01-10T02:40:24;13.02;;;6.82;;
22780;SDS011;11557;50.884;4.322;2024-01-10T02:42:49;13.25;;;7.90;;
22780;SDS011;11557;50.884;4.322;2024-01-10T02:45:16;12.88;;;6.95;;
22780;SDS011;11557;50.884;4.322;2024-01-10T02:47:42;11.02;;;6.45;;
22780;SDS011;11557;50.884;4.322;2024-01-10T02:50:08;12.38;;;6.78;;
22780;SDS011;11557;50.884;4.322;2024-01-10T02:52:34;12.93;;;7.05;;
22780;SDS011;11557;50.884;4.322;2024-01-10T02:55:00;12.88;;;6.65;;
22780;SDS011;11557;50.884;4.322;2024-01-10T02:57:25;12.80;;;6.63;;
22780;SDS011;11557;50.884;4.322;2024-01-10T02:59:51;10.68;;;6.50;;
22780;SDS011;11557;50.884;4.322;2024-01-10T03:02:17;12.68;;;6.78;;
22780;SDS011;11557;50.884;4.322;2024-01-10T03:04:43;12.15;;;6.65;;
22780;SDS011;11557;50.884;4.322;2024-01-10T03:07:09;16.90;;;7.40;;
22780;SDS011;11557;50.884;4.322;2024-01-10T03:09:35;11.45;;;6.88;;
22780;SDS011;11557;50.884;4.322;2024-01-10T03:12:01;13.00;;;6.85;;
22780;SDS011;11557;50.884;4.322;2024-01-10T03:14:26;13.07;;;6.45;;
22780;SDS011;11557;50.884;4.322;2024-01-10T03:16:52;11.90;;;7.47;;
22780;SDS011;11557;50.884;4.322;2024-01-10T03:19:18;12.45;;;7.00;;
22780;SDS011;11557;50.884;4.322;2024-01-10T03:21:44;12.27;;;6.43;;
22780;SDS011;11557;50.884;4.322;2024-01-10T03:24:10;14.25;;;7.53;;
22780;SDS011;11557;50.884;4.322;2024-01-10T03:26:35;13.98;;;7.45;;
22780;SDS011;11557;50.884;4.322;2024-01-10T03:29:01;15.38;;;6.82;;
22780;SDS011;11557;50.884;4.322;2024-01-10T03:31:27;11.93;;;6.15;;
22780;SDS011;11557;50.884;4.322;2024-01-10T03:33:55;11.82;;;6.70;;
22780;SDS011;11557;50.884;4.322;2024-01-10T03:36:21;13.20;;;6.85;;
22780;SDS011;11557;50.884;4.322;2024-01-10T03:38:47;12.55;;;6.68;;
22780;SDS011;11557;50.884;4.322;2024-01-10T03:41:13;13.10;;;8.15;;
22780;SDS011;11557;50.884;4.322;2024-01-10T03:43:39;12.52;;;6.40;;
22780;SDS011;11557;50.884;4.322;2024-01-10T03:46:05;15.20;;;7.00;;
22780;SDS011;11557;50.884;4.322;2024-01-10T03:48:31;11.57;;;6.63;;
22780;SDS011;11557;50.884;4.322;2024-01-10T03:50:56;13.02;;;7.07;;
22780;SDS011;11557;50.884;4.322;2024-01-10T03:53:22;14.15;;;7.05;;
22780;SDS011;11557;50.884;4.322;2024-01-10T03:55:48;14.63;;;7.25;;
22780;SDS011;11557;50.884;4.322;2024-01-10T03:58:13;12.13;;;6.28;;
22780;SDS011;11557;50.884;4.322;2024-01-10T04:00:39;9.85;;;6.38;;
22780;SDS011;11557;50.884;4.322;2024-01-10T04:03:05;13.48;;;7.05;;
22780;SDS011;11557;50.884;4.322;2024-01-10T04:05:30;12.55;;;6.93;;
22780;SDS011;11557;50.884;4.322;2024-01-10T04:07:56;11.73;;;7.32;;
22780;SDS011;11557;50.884;4.322;2024-01-10T04:10:22;13.57;;;6.40;;
22780;SDS011;11557;50.884;4.322;2024-01-10T04:12:48;14.32;;;7.15;;
22780;SDS011;11557;50.884;4.322;2024-01-10T04:15:14;11.77;;;6.35;;
22780;SDS011;11557;50.884;4.322;2024-01-10T04:17:40;12.25;;;6.82;;
22780;SDS011;11557;50.884;4.322;2024-01-10T04:20:06;12.32;;;6.90;;
22780;SDS011;11557;50.884;4.322;2024-01-10T04:22:32;14.38;;;6.63;;
22780;SDS011;11557;50.884;4.322;2024-01-10T04:24:59;19.17;;;7.70;;
22780;SDS011;11557;50.884;4.322;2024-01-10T04:27:26;11.77;;;6.53;;
22780;SDS011;11557;50.884;4.322;2024-01-10T04:29:52;15.93;;;7.25;;
22780;SDS011;11557;50.884;4.322;2024-01-10T04:32:19;13.25;;;6.25;;
22780;SDS011;11557;50.884;4.322;2024-01-10T04:34:44;12.65;;;6.65;;
22780;SDS011;11557;50.884;4.322;2024-01-10T04:37:10;12.23;;;6.82;;
22780;SDS011;11557;50.884;4.322;2024-01-10T04:39:36;13.98;;;6.20;;
22780;SDS011;11557;50.884;4.322;2024-01-10T04:42:05;10.73;;;7.10;;
22780;SDS011;11557;50.884;4.322;2024-01-10T04:44:32;13.48;;;6.78;;
22780;SDS011;11557;50.884;4.322;2024-01-10T04:46:58;12.95;;;6.40;;
22780;SDS011;11557;50.884;4.322;2024-01-10T04:49:23;10.45;;;6.68;;
22780;SDS011;11557;50.884;4.322;2024-01-10T04:51:49;11.70;;;6.35;;
22780;SDS011;11557;50.884;4.322;2024-01-10T04:54:15;11.65;;;6.45;;
22780;SDS011;11557;50.884;4.322;2024-01-10T04:56:41;12.98;;;6.75;;
22780;SDS011;11557;50.884;4.322;2024-01-10T04:59:07;18.45;;;6.43;;
22780;SDS011;11557;50.884;4.322;2024-01-10T05:01:32;11.98;;;6.70;;
22780;SDS011;11557;50.884;4.322;2024-01-10T05:03:58;12.60;;;6.57;;
22780;SDS011;11557;50.884;4.322;2024-01-10T05:06:24;14.45;;;6.65;;
22780;SDS011;11557;50.884;4.322;2024-01-10T05:08:49;12.50;;;7.03;;
22780;SDS011;11557;50.884;4.322;2024-01-10T05:11:15;13.15;;;6.85;;
22780;SDS011;11557;50.884;4.322;2024-01-10T05:13:44;11.57;;;6.88;;
22780;SDS011;11557;50.884;4.322;2024-01-10T05:16:10;16.10;;;6.63;;
22780;SDS011;11557;50.884;4.322;2024-01-10T05:18:35;13.45;;;6.32;;
22780;SDS011;11557;50.884;4.322;2024-01-10T05:21:01;11.23;;;6.03;;
22780;SDS011;11557;50.884;4.322;2024-01-10T05:23:29;12.23;;;6.68;;
22780;SDS011;11557;50.884;4.322;2024-01-10T05:25:55;14.13;;;6.60;;
22780;SDS011;11557;50.884;4.322;2024-01-10T05:28:20;11.25;;;6.55;;
22780;SDS011;11557;50.884;4.322;2024-01-10T05:30:46;11.05;;;5.93;;
22780;SDS011;11557;50.884;4.322;2024-01-10T05:33:12;11.73;;;5.78;;
22780;SDS011;11557;50.884;4.322;2024-01-10T05:35:38;11.23;;;5.82;;
22780;SDS011;11557;50.884;4.322;2024-01-10T05:38:04;11.95;;;5.78;;
22780;SDS011;11557;50.884;4.322;2024-01-10T05:40:30;13.65;;;6.78;;
22780;SDS011;11557;50.884;4.322;2024-01-10T05:42:56;12.82;;;7.47;;
22780;SDS011;11557;50.884;4.322;2024-01-10T05:45:24;14.80;;;6.68;;
22780;SDS011;11557;50.884;4.322;2024-01-10T05:47:50;12.02;;;5.68;;
22780;SDS011;11557;50.884;4.322;2024-01-10T05:50:16;15.40;;;6.93;;
22780;SDS011;11557;50.884;4.322;2024-01-10T05:52:42;14.45;;;6.95;;
22780;SDS011;11557;50.884;4.322;2024-01-10T05:55:08;11.75;;;6.35;;
22780;SDS011;11557;50.884;4.322;2024-01-10T05:57:35;12.75;;;5.82;;
22780;SDS011;11557;50.884;4.322;2024-01-10T06:00:01;14.27;;;6.68;;
22780;SDS011;11557;50.884;4.322;2024-01-10T06:02:28;20.08;;;6.82;;
22780;SDS011;11557;50.884;4.322;2024-01-10T06:04:53;12.85;;;6.43;;
22780;SDS011;11557;50.884;4.322;2024-01-10T06:07:19;13.55;;;6.82;;
22780;SDS011;11557;50.884;4.322;2024-01-10T06:09:46;13.15;;;6.78;;
22780;SDS011;11557;50.884;4.322;2024-01-10T06:12:12;12.45;;;6.63;;
22780;SDS011;11557;50.884;4.322;2024-01-10T06:14:38;16.40;;;6.93;;
22780;SDS011;11557;50.884;4.322;2024-01-10T06:17:04;11.95;;;5.72;;
22780;SDS011;11557;50.884;4.322;2024-01-10T06:19:30;12.02;;;6.32;;
22780;SDS011;11557;50.884;4.322;2024-01-10T06:21:56;13.63;;;6.72;;
22780;SDS011;11557;50.884;4.322;2024-01-10T06:24:22;12.95;;;5.95;;
22780;SDS011;11557;50.884;4.322;2024-01-10T06:26:48;13.07;;;5.90;;
22780;SDS011;11557;50.884;4.322;2024-01-10T06:29:16;12.52;;;5.90;;
22780;SDS011;11557;50.884;4.322;2024-01-10T06:31:43;13.73;;;7.10;;
22780;SDS011;11557;50.884;4.322;2024-01-10T06:34:09;13.40;;;7.38;;
22780;SDS011;11557;50.884;4.322;2024-01-10T06:36:35;11.23;;;6.15;;
22780;SDS011;11557;50.884;4.322;2024-01-10T06:39:01;10.88;;;5.95;;
22780;SDS011;11557;50.884;4.322;2024-01-10T06:41:26;10.93;;;6.72;;
22780;SDS011;11557;50.884;4.322;2024-01-10T06:43:52;11.07;;;6.22;;
22780;SDS011;11557;50.884;4.322;2024-01-10T06:46:18;10.77;;;5.82;;
22780;SDS011;11557;50.884;4.322;2024-01-10T06:48:45;10.85;;;6.97;;
22780;SDS011;11557;50.884;4.322;2024-01-10T06:51:14;11.18;;;6.22;;
22780;SDS011;11557;50.884;4.322;2024-01-10T06:53:40;12.27;;;6.57;;
22780;SDS011;11557;50.884;4.322;2024-01-10T06:56:06;11.43;;;5.95;;
22780;SDS011;11557;50.884;4.322;2024-01-10T06:58:34;13.95;;;6.53;;
22780;SDS011;11557;50.884;4.322;2024-01-10T07:01:00;15.85;;;6.82;;
22780;SDS011;11557;50.884;4.322;2024-01-10T07:03:26;10.68;;;6.03;;
22780;SDS011;11557;50.884;4.322;2024-01-10T07:05:52;11.93;;;6.18;;
22780;SDS011;11557;50.884;4.322;2024-01-10T07:08:17;11.85;;;6.43;;
22780;SDS011;11557;50.884;4.322;2024-01-10T07:10:43;10.95;;;6.40;;
22780;SDS011;11557;50.884;4.322;2024-01-10T07:13:09;12.38;;;6.45;;
22780;SDS011;11557;50.884;4.322;2024-01-10T07:15:35;13.80;;;6.47;;
22780;SDS011;11557;50.884;4.322;2024-01-10T07:18:02;15.98;;;6.95;;
22780;SDS011;11557;50.884;4.322;2024-01-10T07:20:28;13.00;;;6.07;;
22780;SDS011;11557;50.884;4.322;2024-01-10T07:22:53;13.82;;;7.55;;
22780;SDS011;11557;50.884;4.322;2024-01-10T07:25:19;11.25;;;6.53;;
22780;SDS011;11557;50.884;4.322;2024-01-10T07:27:47;9.25;;;5.47;;
22780;SDS011;11557;50.884;4.322;2024-01-10T07:30:13;13.20;;;7.82;;
22780;SDS011;11557;50.884;4.322;2024-01-10T07:32:39;11.65;;;6.50;;
22780;SDS011;11557;50.884;4.322;2024-01-10T07:35:06;15.68;;;6.25;;
22780;SDS011;11557;50.884;4.322;2024-01-10T07:37:35;19.42;;;7.55;;
22780;SDS011;11557;50.884;4.322;2024-01-10T07:40:01;14.10;;;6.60;;
22780;SDS011;11557;50.884;4.322;2024-01-10T07:42:29;17.95;;;6.88;;
22780;SDS011;11557;50.884;4.322;2024-01-10T07:44:56;12.90;;;7.03;;
22780;SDS011;11557;50.884;4.322;2024-01-10T07:47:22;11.63;;;6.82;;
22780;SDS011;11557;50.884;4.322;2024-01-10T07:49:47;12.40;;;7.07;;
22780;SDS011;11557;50.884;4.322;2024-01-10T07:52:13;12.70;;;6.10;;
22780;SDS011;11557;50.884;4.322;2024-01-10T07:54:41;11.13;;;6.30;;
22780;SDS011;11557;50.884;4.322;2024-01-10T07:57:07;12.32;;;6.18;;
22780;SDS011;11557;50.884;4.322;2024-01-10T07:59:32;11.70;;;6.30;;
22780;SDS011;11557;50.884;4.322;2024-01-10T08:01:59;10.93;;;6.70;;
22780;SDS011;11557;50.884;4.322;2024-01-10T08:04:26;11.35;;;6.15;;
22780;SDS011;11557;50.884;4.322;2024-01-10T08:06:52;13.10;;;6.30;;
22780;SDS011;11557;50.884;4.322;2024-01-10T08:09:18;16.35;;;7.45;;
22780;SDS011;11557;50.884;4.322;2024-01-10T08:11:44;12.95;;;6.78;;
22780;SDS011;11557;50.884;4.322;2024-01-10T08:14:10;12.63;;;6.20;;
22780;SDS011;11557;50.884;4.322;2024-01-10T08:16:37;11.40;;;6.07;;
22780;SDS011;11557;50.884;4.322;2024-01-10T08:19:02;13.52;;;6.60;;
22780;SDS011;11557;50.884;4.322;2024-01-10T08:21:28;9.63;;;6.53;;
22780;SDS011;11557;50.884;4.322;2024-01-10T08:23:54;13.35;;;7.22;;
22780;SDS011;11557;50.884;4.322;2024-01-10T08:26:19;12.00;;;7.07;;
22780;SDS011;11557;50.884;4.322;2024-01-10T08:28:45;15.98;;;7.30;;
22780;SDS011;11557;50.884;4.322;2024-01-10T08:31:10;17.08;;;6.80;;
22780;SDS011;11557;50.884;4.322;2024-01-10T08:33:37;13.40;;;6.45;;
22780;SDS011;11557;50.884;4.322;2024-01-10T08:36:04;15.18;;;7.10;;
22780;SDS011;11557;50.884;4.322;2024-01-10T08:38:30;12.95;;;6.80;;
22780;SDS011;11557;50.884;4.322;2024-01-10T08:40:56;13.55;;;6.90;;
22780;SDS011;11557;50.884;4.322;2024-01-10T08:43:22;14.52;;;7.25;;
22780;SDS011;11557;50.884;4.322;2024-01-10T08:45:47;19.42;;;6.97;;
22780;SDS011;11557;50.884;4.322;2024-01-10T08:48:13;21.00;;;6.97;;
22780;SDS011;11557;50.884;4.322;2024-01-10T08:50:39;14.20;;;6.68;;
22780;SDS011;11557;50.884;4.322;2024-01-10T08:53:04;15.80;;;7.18;;
22780;SDS011;11557;50.884;4.322;2024-01-10T08:55:31;13.13;;;6.80;;
22780;SDS011;11557;50.884;4.322;2024-01-10T08:57:57;17.65;;;6.85;;
22780;SDS011;11557;50.884;4.322;2024-01-10T09:00:22;14.90;;;7.38;;
22780;SDS011;11557;50.884;4.322;2024-01-10T09:02:52;14.18;;;6.70;;
22780;SDS011;11557;50.884;4.322;2024-01-10T09:05:18;13.10;;;7.03;;
22780;SDS011;11557;50.884;4.322;2024-01-10T09:07:44;12.48;;;6.70;;
22780;SDS011;11557;50.884;4.322;2024-01-10T09:10:10;14.98;;;8.05;;
22780;SDS011;11557;50.884;4.322;2024-01-10T09:12:35;12.68;;;7.30;;
22780;SDS011;11557;50.884;4.322;2024-01-10T09:15:01;13.75;;;7.10;;
22780;SDS011;11557;50.884;4.322;2024-01-10T09:17:27;14.50;;;7.20;;
22780;SDS011;11557;50.884;4.322;2024-01-10T09:19:53;13.55;;;7.60;;
22780;SDS011;11557;50.884;4.322;2024-01-10T09:22:19;15.00;;;7.72;;
22780;SDS011;11557;50.884;4.322;2024-01-10T09:24:44;13.93;;;7.68;;
22780;SDS011;11557;50.884;4.322;2024-01-10T09:27:10;14.90;;;7.15;;
22780;SDS011;11557;50.884;4.322;2024-01-10T09:29:36;17.08;;;8.27;;
22780;SDS011;11557;50.884;4.322;2024-01-10T09:32:02;13.40;;;8.35;;
22780;SDS011;11557;50.884;4.322;2024-01-10T09:34:28;11.55;;;7.22;;
22780;SDS011;11557;50.884;4.322;2024-01-10T09:36:54;14.23;;;8.23;;
22780;SDS011;11557;50.884;4.322;2024-01-10T09:39:19;14.35;;;7.68;;
22780;SDS011;11557;50.884;4.322;2024-01-10T09:41:46;16.70;;;7.80;;
22780;SDS011;11557;50.884;4.322;2024-01-10T09:44:19;15.20;;;7.47;;
22780;SDS011;11557;50.884;4.322;2024-01-10T09:46:50;17.98;;;7.72;;
22780;SDS011;11557;50.884;4.322;2024-01-10T09:49:17;16.83;;;7.80;;
22780;SDS011;11557;50.884;4.322;2024-01-10T09:51:43;20.00;;;7.47;;
22780;SDS011;11557;50.884;4.322;2024-01-10T09:54:12;22.48;;;8.20;;
22780;SDS011;11557;50.884;4.322;2024-01-10T09:56:41;17.75;;;7.68;;
22780;SDS011;11557;50.884;4.322;2024-01-10T09:59:07;16.42;;;7.88;;
22780;SDS011;11557;50.884;4.322;2024-01-10T10:01:36;14.73;;;7.25;;
22780;SDS011;11557;50.884;4.322;2024-01-10T10:04:04;15.68;;;8.68;;
22780;SDS011;11557;50.884;4.322;2024-01-10T10:06:32;13.85;;;7.63;;
22780;SDS011;11557;50.884;4.322;2024-01-10T10:08:59;16.42;;;8.70;;
22780;SDS011;11557;50.884;4.322;2024-01-10T10:11:25;14.90;;;8.35;;
22780;SDS011;11557;50.884;4.322;2024-01-10T10:13:50;16.42;;;8.73;;
22780;SDS011;11557;50.884;4.322;2024-01-10T10:16:22;14.55;;;7.85;;
22780;SDS011;11557;50.884;4.322;2024-01-10T10:18:51;18.45;;;9.00;;
22780;SDS011;11557;50.884;4.322;2024-01-10T10:21:22;17.13;;;9.25;;
22780;SDS011;11557;50.884;4.322;2024-01-10T10:24:00;16.90;;;8.15;;
22780;SDS011;11557;50.884;4.322;2024-01-10T10:26:27;13.25;;;8.50;;
22780;SDS011;11557;50.884;4.322;2024-01-10T10:28:54;19.65;;;8.45;;
22780;SDS011;11557;50.884;4.322;2024-01-10T10:31:21;16.42;;;8.65;;
22780;SDS011;11557;50.884;4.322;2024-01-10T10:33:48;14.60;;;8.63;;
22780;SDS011;11557;50.884;4.322;2024-01-10T10:36:16;17.27;;;9.00;;
22780;SDS011;11557;50.884;4.322;2024-01-10T10:38:41;14.30;;;7.78;;
22780;SDS011;11557;50.884;4.322;2024-01-10T10:41:07;19.95;;;9.15;;
22780;SDS011;11557;50.884;4.322;2024-01-10T10:43:36;13.35;;;8.75;;
22780;SDS011;11557;50.884;4.322;2024-01-10T10:46:09;15.52;;;8.77;;
22780;SDS011;11557;50.884;4.322;2024-01-10T10:48:37;16.00;;;9.15;;
22780;SDS011;11557;50.884;4.322;2024-01-10T10:53:43;16.15;;;9.45;;
22780;SDS011;11557;50.884;4.322;2024-01-10T10:56:11;15.57;;;9.05;;
22780;SDS011;11557;50.884;4.322;2024-01-10T10:58:41;16.33;;;9.13;;
22780;SDS011;11557;50.884;4.322;2024-01-10T11:01:08;13.95;;;9.02;;
22780;SDS011;11557;50.884;4.322;2024-01-10T11:03:36;15.13;;;9.38;;
22780;SDS011;11557;50.884;4.322;2024-01-10T11:06:06;14.70;;;8.95;;
22780;SDS011;11557;50.884;4.322;2024-01-10T11:08:36;15.32;;;9.15;;
22780;SDS011;11557;50.884;4.322;2024-01-10T11:11:06;16.15;;;9.25;;
22780;SDS011;11557;50.884;4.322;2024-01-10T11:13:49;15.70;;;8.88;;
22780;SDS011;11557;50.884;4.322;2024-01-10T11:16:39;20.15;;;9.63;;
22780;SDS011;11557;50.884;4.322;2024-01-10T11:22:42;19.05;;;9.75;;
22780;SDS011;11557;50.884;4.322;2024-01-10T11:25:08;13.32;;;8.80;;
22780;SDS011;11557;50.884;4.322;2024-01-10T11:27:36;16.98;;;8.85;;
22780;SDS011;11557;50.884;4.322;2024-01-10T11:30:02;17.85;;;9.52;;
22780;SDS011;11557;50.884;4.322;2024-01-10T11:32:30;13.88;;;9.05;;
22780;SDS011;11557;50.884;4.322;2024-01-10T11:34:57;18.85;;;9.32;;
22780;SDS011;11557;50.884;4.322;2024-01-10T11:37:27;16.85;;;9.40;;
22780;SDS011;11557;50.884;4.322;2024-01-10T11:40:03;19.05;;;9.68;;
22780;SDS011;11557;50.884;4.322;2024-01-10T11:42:41;15.80;;;9.05;;
22780;SDS011;11557;50.884;4.322;2024-01-10T11:45:08;19.45;;;9.60;;
22780;SDS011;11557;50.884;4.322;2024-01-10T11:47:34;20.25;;;9.43;;
22780;SDS011;11557;50.884;4.322;2024-01-10T11:50:04;16.75;;;9.45;;
22780;SDS011;11557;50.884;4.322;2024-01-10T11:52:32;19.58;;;9.82;;
22780;SDS011;11557;50.884;4.322;2024-01-10T11:54:59;18.08;;;9.43;;
22780;SDS011;11557;50.884;4.322;2024-01-10T11:57:25;18.00;;;10.07;;
22780;SDS011;11557;50.884;4.322;2024-01-10T11:59:53;16.15;;;9.40;;
22780;SDS011;11557;50.884;4.322;2024-01-10T12:02:20;19.33;;;9.45;;
22780;SDS011;11557;50.884;4.322;2024-01-10T12:04:48;20.38;;;10.13;;
22780;SDS011;11557;50.884;4.322;2024-01-10T12:07:14;17.30;;;10.02;;
22780;SDS011;11557;50.884;4.322;2024-01-10T12:09:41;17.00;;;9.45;;
22780;SDS011;11557;50.884;4.322;2024-01-10T12:12:07;18.30;;;9.98;;
22780;SDS011;11557;50.884;4.322;2024-01-10T12:14:34;21.08;;;12.20;;
22780;SDS011;11557;50.884;4.322;2024-01-10T12:16:59;23.98;;;13.32;;
22780;SDS011;11557;50.884;4.322;2024-01-10T12:19:25;25.80;;;14.23;;
22780;SDS011;11557;50.884;4.322;2024-01-10T12:21:52;21.83;;;12.43;;
22780;SDS011;11557;50.884;4.322;2024-01-10T12:24:18;17.85;;;11.35;;
22780;SDS011;11557;50.884;4.322;2024-01-10T12:26:45;17.73;;;9.70;;
22780;SDS011;11557;50.884;4.322;2024-01-10T12:29:12;21.10;;;10.60;;
22780;SDS011;11557;50.884;4.322;2024-01-10T12:31:38;23.20;;;9.82;;
22780;SDS011;11557;50.884;4.322;2024-01-10T12:34:04;18.90;;;9.13;;
22780;SDS011;11557;50.884;4.322;2024-01-10T12:36:33;22.58;;;10.18;;
22780;SDS011;11557;50.884;4.322;2024-01-10T12:38:59;19.65;;;9.90;;
22780;SDS011;11557;50.884;4.322;2024-01-10T12:41:24;21.80;;;10.85;;
22780;SDS011;11557;50.884;4.322;2024-01-10T12:43:54;19.33;;;9.75;;
22780;SDS011;11557;50.884;4.322;2024-01-10T12:46:21;19.40;;;10.02;;
22780;SDS011;11557;50.884;4.322;2024-01-10T12:48:57;20.17;;;10.18;;
22780;SDS011;11557;50.884;4.322;2024-01-10T12:51:28;21.65;;;10.38;;
22780;SDS011;11557;50.884;4.322;2024-01-10T12:53:55;21.60;;;10.20;;
22780;SDS011;11557;50.884;4.322;2024-01-10T12:56:23;17.85;;;10.05;;
22780;SDS011;11557;50.884;4.322;2024-01-10T12:58:49;20.58;;;9.43;;
22780;SDS011;11557;50.884;4.322;2024-01-10T13:01:14;18.40;;;10.10;;
22780;SDS011;11557;50.884;4.322;2024-01-10T13:03:40;21.92;;;10.40;;
22780;SDS011;11557;50.884;4.322;2024-01-10T13:06:06;15.82;;;9.35;;
22780;SDS011;11557;50.884;4.322;2024-01-10T13:08:32;18.73;;;10.02;;
22780;SDS011;11557;50.884;4.322;2024-01-10T13:10:58;18.30;;;9.38;;
22780;SDS011;11557;50.884;4.322;2024-01-10T13:13:24;18.50;;;9.80;;
22780;SDS011;11557;50.884;4.322;2024-01-10T13:15:50;17.20;;;9.65;;
22780;SDS011;11557;50.884;4.322;2024-01-10T13:18:16;18.65;;;9.85;;
22780;SDS011;11557;50.884;4.322;2024-01-10T13:20:43;19.50;;;10.00;;
22780;SDS011;11557;50.884;4.322;2024-01-10T13:23:09;18.50;;;9.52;;
22780;SDS011;11557;50.884;4.322;2024-01-10T13:25:35;20.73;;;11.10;;
22780;SDS011;11557;50.884;4.322;2024-01-10T13:28:02;18.33;;;10.18;;
22780;SDS011;11557;50.884;4.322;2024-01-10T13:30:29;17.58;;;9.63;;
22780;SDS011;11557;50.884;4.322;2024-01-10T13:32:55;15.68;;;9.48;;
22780;SDS011;11557;50.884;4.322;2024-01-10T13:35:20;18.90;;;9.80;;
22780;SDS011;11557;50.884;4.322;2024-01-10T13:37:47;23.92;;;11.07;;
22780;SDS011;11557;50.884;4.322;2024-01-10T13:40:13;18.13;;;10.60;;
22780;SDS011;11557;50.884;4.322;2024-01-10T13:42:39;22.20;;;11.27;;
22780;SDS011;11557;50.884;4.322;2024-01-10T13:45:05;22.80;;;11.07;;
22780;SDS011;11557;50.884;4.322;2024-01-10T13:47:31;19.67;;;11.02;;
22780;SDS011;11557;50.884;4.322;2024-01-10T13:50:00;20.08;;;11.00;;
22780;SDS011;11557;50.884;4.322;2024-01-10T13:52:28;19.88;;;11.10;;
22780;SDS011;11557;50.884;4.322;2024-01-10T13:54:53;16.23;;;9.20;;
22780;SDS011;11557;50.884;4.322;2024-01-10T13:57:19;24.23;;;10.75;;
22780;SDS011;11557;50.884;4.322;2024-01-10T13:59:45;22.77;;;11.63;;
22780;SDS011;11557;50.884;4.322;2024-01-10T14:02:12;21.60;;;10.95;;
22780;SDS011;11557;50.884;4.322;2024-01-10T14:04:37;19.85;;;10.68;;
22780;SDS011;11557;50.884;4.322;2024-01-10T14:07:03;19.90;;;10.23;;
22780;SDS011;11557;50.884;4.322;2024-01-10T14:09:29;17.15;;;10.07;;
22780;SDS011;11557;50.884;4.322;2024-01-10T14:11:55;16.98;;;9.73;;
22780;SDS011;11557;50.884;4.322;2024-01-10T14:14:21;21.77;;;11.18;;
22780;SDS011;11557;50.884;4.322;2024-01-10T14:16:47;22.42;;;10.50;;
22780;SDS011;11557;50.884;4.322;2024-01-10T14:19:13;21.88;;;10.45;;
22780;SDS011;11557;50.884;4.322;2024-01-10T14:21:38;16.20;;;9.85;;
22780;SDS011;11557;50.884;4.322;2024-01-10T14:24:04;17.67;;;10.35;;
22780;SDS011;11557;50.884;4.322;2024-01-10T14:26:30;17.65;;;10.40;;
22780;SDS011;11557;50.884;4.322;2024-01-10T14:28:55;19.23;;;10.73;;
22780;SDS011;11557;50.884;4.322;2024-01-10T14:31:22;19.77;;;10.05;;
22780;SDS011;11557;50.884;4.322;2024-01-10T14:33:47;19.90;;;10.77;;
22780;SDS011;11557;50.884;4.322;2024-01-10T14:36:13;17.48;;;10.23;;